MSSS/SAL METAR and TAF weather

Enter ICAO airport designator
Station Type Date Time Source
MSSS METAR 2020/09/21 22:50 UTC NOAA

MSSS 212250Z 17010KT 9999 VCTS FEW023 FEW040CB SCT060 27/25 Q1013 A2991


Station Type Date Time Source
MSSS Decoded METAR 2020/09/21 22:50 UTC NOAA

San Salvador / Ilopango, El Salvador (MSSS) 13-42N 089-07W 621M
Sep 21, 2020 - 06:50 PM EDT / 2020.09.21 2250 UTC
Wind: from the S (170 degrees) at 12 MPH (10 KT):0
Visibility: greater than 7 mile(s):0
Sky conditions: partly cloudy
Weather: thunder in the vicinity; Cumulonimbus clouds observed
Temperature: 80 F (27 C)
Dew Point: 77 F (25 C)
Relative Humidity: 88%
Pressure (altimeter): 29.91 in. Hg (1012 hPa)
ob: MSSS 212250Z 17010KT 9999 VCTS FEW023 FEW040CB SCT060 27/25 Q1013 A2991
cycle: 23

Station Type Date Time Source
MSSS TAF 2020/09/21 18:33 UTC NOAA

TAF MSSS 211525Z 2118/2218 19007KT 9999 SCT033 TX29/2118Z TN21/2211Z
TEMPO 2201/2203 35013KT 4000 TSRA BKN027 SCT030CB SCT043
FM220300 35004KT 9999 FEW023 FEW037CB SCT070
FM221200 9999 FEW030

Example: see airport list